Time,TemperatureF,DewpointF,PressureIn,WindDirection,WindDirectionDegrees,WindSpeedMPH,WindSpeedGustMPH,Humidity,HourlyPrecipIn,Conditions,Clouds,dailyrainin,SoftwareType,DateUTC
2013-10-11 00:00:00,55.4,36.6,29.94,ESE,112,0.0,0.0,49,0.00,,---,0.00,VWS V14.01,2013-10-11 07:00:00,
2013-10-11 00:05:00,55.2,36.9,29.94,ESE,112,0.0,0.0,50,0.00,,---,0.00,VWS V14.01,2013-10-11 07:05:00,
2013-10-11 00:10:00,55.0,36.8,29.94,SW,225,0.0,0.0,50,0.00,,---,0.00,VWS V14.01,2013-10-11 07:10:00,
2013-10-11 00:15:00,54.7,36.4,29.94,SW,225,0.0,0.0,50,0.00,,---,0.00,VWS V14.01,2013-10-11 07:15:00,
2013-10-11 00:20:00,54.5,36.8,29.94,SW,225,0.0,0.0,51,0.00,,---,0.00,VWS V14.01,2013-10-11 07:20:00,
2013-10-11 00:25:00,54.3,37.1,29.94,SW,225,0.0,0.0,52,0.00,,---,0.00,VWS V14.01,2013-10-11 07:25:00,
2013-10-11 00:30:00,54.3,37.6,29.94,SW,225,0.0,0.0,53,0.00,,---,0.00,VWS V14.01,2013-10-11 07:30:00,
2013-10-11 00:35:00,54.5,37.7,29.94,SW,225,0.0,0.0,53,0.00,,---,0.00,VWS V14.01,2013-10-11 07:35:00,
2013-10-11 00:40:00,54.7,37.9,29.94,SW,225,0.0,0.0,53,0.00,,---,0.00,VWS V14.01,2013-10-11 07:40:00,
2013-10-11 00:45:00,54.7,37.9,29.94,NNW,338,1.1,1.1,53,0.00,,---,0.00,VWS V14.01,2013-10-11 07:45:00,
2013-10-11 00:50:00,54.9,37.6,29.94,NNW,338,1.1,1.1,52,0.00,,---,0.00,VWS V14.01,2013-10-11 07:50:00,
2013-10-11 00:55:00,54.7,36.9,29.94,NNW,338,1.1,1.1,51,0.00,,---,0.00,VWS V14.01,2013-10-11 07:55:00,
2013-10-11 01:00:00,54.5,36.8,29.94,NNW,338,0.0,0.0,51,0.00,,---,0.00,VWS V14.01,2013-10-11 08:00:00,
2013-10-11 01:05:00,54.5,36.8,29.94,North,0,0.0,0.0,51,0.00,,---,0.00,VWS V14.01,2013-10-11 08:05:00,
2013-10-11 01:10:00,54.5,36.8,29.94,North,0,0.0,0.0,51,0.00,,---,0.00,VWS V14.01,2013-10-11 08:10:00,
2013-10-11 01:15:00,54.3,36.1,29.94,North,0,0.0,0.0,50,0.00,,---,0.00,VWS V14.01,2013-10-11 08:15:00,
2013-10-11 01:20:00,53.8,36.1,29.94,North,0,0.0,0.0,51,0.00,,---,0.00,VWS V14.01,2013-10-11 08:20:00,
2013-10-11 01:25:00,53.4,35.8,29.94,North,0,0.0,0.0,51,0.00,,---,0.00,VWS V14.01,2013-10-11 08:25:00,
2013-10-11 01:30:00,53.1,35.4,29.94,North,0,0.0,0.0,51,0.00,,---,0.00,VWS V14.01,2013-10-11 08:30:00,
2013-10-11 01:35:00,52.7,35.6,29.94,North,0,0.0,0.0,52,0.00,,---,0.00,VWS V14.01,2013-10-11 08:35:00,
2013-10-11 01:40:00,52.5,35.4,29.94,ENE,68,0.0,0.0,52,0.00,,---,0.00,VWS V14.01,2013-10-11 08:40:00,
2013-10-11 01:45:00,52.3,35.2,29.94,ENE,68,1.1,1.1,52,0.00,,---,0.00,VWS V14.01,2013-10-11 08:45:00,
2013-10-11 01:50:00,52.2,35.1,29.94,ENE,68,1.6,1.6,52,0.00,,---,0.00,VWS V14.01,2013-10-11 08:50:00,
2013-10-11 01:56:00,51.8,35.2,29.94,East,90,1.6,1.6,53,0.00,,---,0.00,VWS V14.01,2013-10-11 08:56:00,
2013-10-11 02:01:00,51.6,35.5,29.94,East,90,2.9,2.9,54,0.00,,---,0.00,VWS V14.01,2013-10-11 09:01:00,
2013-10-11 02:06:00,51.4,35.4,29.94,East,90,2.9,2.9,54,0.00,,---,0.00,VWS V14.01,2013-10-11 09:06:00,
2013-10-11 02:11:00,51.3,35.7,29.94,ENE,68,2.2,2.2,55,0.00,,---,0.00,VWS V14.01,2013-10-11 09:11:00,
2013-10-11 02:16:00,51.1,35.5,29.94,ENE,68,2.2,2.2,55,0.00,,---,0.00,VWS V14.01,2013-10-11 09:16:00,
2013-10-11 02:21:00,50.9,36.7,29.94,North,0,1.3,1.3,58,0.00,,---,0.00,VWS V14.01,2013-10-11 09:21:00,
2013-10-11 02:26:00,50.9,36.2,29.94,North,0,0.9,0.9,57,0.00,,---,0.00,VWS V14.01,2013-10-11 09:26:00,
2013-10-11 02:31:00,50.7,36.5,29.94,North,0,0.9,0.9,58,0.00,,---,0.00,VWS V14.01,2013-10-11 09:31:00,
2013-10-11 02:36:00,50.7,36.5,29.94,North,0,0.9,0.9,58,0.00,,---,0.00,VWS V14.01,2013-10-11 09:36:00,
2013-10-11 02:41:00,50.7,36.9,29.94,North,0,0.9,0.9,59,0.00,,---,0.00,VWS V14.01,2013-10-11 09:41:00,
2013-10-11 02:46:00,50.9,37.1,29.94,North,0,0.9,0.9,59,0.00,,---,0.00,VWS V14.01,2013-10-11 09:46:00,
2013-10-11 02:51:00,50.9,36.7,29.94,North,0,0.9,0.9,58,0.00,,---,0.00,VWS V14.01,2013-10-11 09:51:00,
2013-10-11 02:56:00,50.9,36.7,29.94,North,0,0.9,0.9,58,0.00,,---,0.00,VWS V14.01,2013-10-11 09:56:00,
2013-10-11 03:01:00,50.9,36.7,29.94,North,0,0.9,0.9,58,0.00,,---,0.00,VWS V14.01,2013-10-11 10:01:00,
2013-10-11 03:06:00,50.9,36.2,29.94,North,0,0.9,0.9,57,0.00,,---,0.00,VWS V14.01,2013-10-11 10:06:00,
2013-10-11 03:12:00,50.7,36.1,29.94,North,0,0.9,0.9,57,0.00,,---,0.00,VWS V14.01,2013-10-11 10:12:00,
2013-10-11 03:17:00,50.5,36.3,29.94,North,0,0.9,0.9,58,0.00,,---,0.00,VWS V14.01,2013-10-11 10:17:00,
2013-10-11 03:22:00,50.4,35.7,29.94,North,0,0.9,0.9,57,0.00,,---,0.00,VWS V14.01,2013-10-11 10:22:00,
2013-10-11 03:27:00,50.4,36.2,29.94,North,0,0.9,0.9,58,0.00,,---,0.00,VWS V14.01,2013-10-11 10:27:00,
2013-10-11 03:32:00,50.2,36.0,29.94,North,0,0.9,0.9,58,0.00,,---,0.00,VWS V14.01,2013-10-11 10:32:00,
2013-10-11 03:37:00,50.2,36.0,29.94,North,0,0.9,0.9,58,0.00,,---,0.00,VWS V14.01,2013-10-11 10:37:00,
2013-10-11 03:42:00,50.2,36.4,29.94,North,0,0.9,0.9,59,0.00,,---,0.00,VWS V14.01,2013-10-11 10:42:00,
2013-10-11 03:47:00,50.4,37.0,29.94,North,0,0.9,0.9,60,0.00,,---,0.00,VWS V14.01,2013-10-11 10:47:00,
2013-10-11 03:52:00,50.4,36.6,29.94,North,0,0.9,0.9,59,0.00,,---,0.00,VWS V14.01,2013-10-11 10:52:00,
2013-10-11 03:57:00,50.4,38.3,29.94,North,0,0.9,0.9,63,0.00,,---,0.00,VWS V14.01,2013-10-11 10:57:00,
2013-10-11 04:03:00,50.4,37.0,29.94,North,0,0.9,0.9,60,0.00,,---,0.00,VWS V14.01,2013-10-11 11:03:00,
2013-10-11 04:08:00,50.4,37.4,29.94,North,0,0.9,0.9,61,0.00,,---,0.00,VWS V14.01,2013-10-11 11:08:00,
2013-10-11 04:13:00,50.4,37.8,29.94,North,0,0.9,0.9,62,0.00,,---,0.00,VWS V14.01,2013-10-11 11:13:00,
2013-10-11 04:18:00,50.2,36.4,29.94,North,0,0.9,0.9,59,0.00,,---,0.00,VWS V14.01,2013-10-11 11:18:00,
2013-10-11 04:23:00,50.2,36.4,29.94,North,0,0.9,0.9,59,0.00,,---,0.00,VWS V14.01,2013-10-11 11:23:00,
2013-10-11 04:28:00,50.0,35.8,29.94,North,0,0.9,0.9,58,0.00,,---,0.00,VWS V14.01,2013-10-11 11:28:00,
2013-10-11 04:33:00,49.8,36.1,29.94,NE,45,1.3,1.3,59,0.00,,---,0.00,VWS V14.01,2013-10-11 11:33:00,
2013-10-11 04:38:00,49.6,36.3,29.94,NNW,338,1.1,1.1,60,0.00,,---,0.00,VWS V14.01,2013-10-11 11:38:00,
2013-10-11 04:43:00,49.6,36.3,29.94,North,0,1.6,1.6,60,0.00,,---,0.00,VWS V14.01,2013-10-11 11:43:00,
2013-10-11 04:48:00,49.5,36.2,29.94,NE,45,0.0,0.0,60,0.00,,---,0.00,VWS V14.01,2013-10-11 11:48:00,
2013-10-11 04:54:00,49.3,36.0,29.94,North,0,1.3,1.3,60,0.00,,---,0.00,VWS V14.01,2013-10-11 11:54:00,
2013-10-11 04:59:00,49.3,35.6,29.94,NNE,22,0.0,0.0,59,0.00,,---,0.00,VWS V14.01,2013-10-11 11:59:00,
2013-10-11 05:04:00,49.1,35.8,29.94,North,0,2.7,2.7,60,0.00,,---,0.00,VWS V14.01,2013-10-11 12:04:00,
2013-10-11 05:09:00,49.1,35.8,29.94,NE,45,0.0,0.9,60,0.00,,---,0.00,VWS V14.01,2013-10-11 12:09:00,
2013-10-11 05:14:00,49.1,35.4,29.94,NNE,22,1.1,1.1,59,0.00,,---,0.00,VWS V14.01,2013-10-11 12:14:00,
2013-10-11 05:19:00,48.9,35.2,29.94,NE,45,0.0,0.0,59,0.00,,---,0.00,VWS V14.01,2013-10-11 12:19:00,
2013-10-11 05:24:00,48.9,34.8,29.94,NE,45,0.0,0.0,58,0.00,,---,0.00,VWS V14.01,2013-10-11 12:24:00,
2013-10-11 05:29:00,48.9,34.8,29.94,NE,45,0.0,0.0,58,0.00,,---,0.00,VWS V14.01,2013-10-11 12:29:00,
2013-10-11 05:34:00,48.9,35.7,29.94,ENE,68,1.1,1.1,60,0.00,,---,0.00,VWS V14.01,2013-10-11 12:34:00,
2013-10-11 05:39:00,49.1,35.8,29.94,North,0,0.0,1.3,60,0.00,,---,0.00,VWS V14.01,2013-10-11 12:39:00,
2013-10-11 05:45:00,49.1,35.4,29.94,NNW,338,0.0,0.0,59,0.00,,---,0.00,VWS V14.01,2013-10-11 12:45:00,
2013-10-11 05:50:00,49.1,35.8,29.94,North,0,2.0,2.0,60,0.00,,---,0.00,VWS V14.01,2013-10-11 12:50:00,
2013-10-11 05:55:00,49.1,35.8,29.94,NNE,22,1.3,1.3,60,0.00,,---,0.00,VWS V14.01,2013-10-11 12:55:00,
2013-10-11 06:00:00,49.5,36.2,29.97,NNE,22,2.5,2.5,60,0.00,,---,0.00,VWS V14.01,2013-10-11 13:00:00,
2013-10-11 06:05:00,49.5,36.2,29.97,NNE,22,1.3,1.3,60,0.00,,---,0.00,VWS V14.01,2013-10-11 13:05:00,
2013-10-11 06:10:00,49.5,36.2,29.94,NNE,22,0.9,0.9,60,0.00,,---,0.00,VWS V14.01,2013-10-11 13:10:00,
2013-10-11 06:15:00,49.5,36.2,29.94,NNW,338,1.6,1.6,60,0.00,,---,0.00,VWS V14.01,2013-10-11 13:15:00,
2013-10-11 06:20:00,49.8,36.9,29.94,North,0,1.6,1.6,61,0.00,,---,0.00,VWS V14.01,2013-10-11 13:20:00,
2013-10-11 06:25:00,49.8,36.1,29.97,SSE,158,1.1,1.1,59,0.00,,---,0.00,VWS V14.01,2013-10-11 13:25:00,
2013-10-11 06:30:00,49.6,35.9,29.97,SSE,158,0.0,0.0,59,0.00,,---,0.00,VWS V14.01,2013-10-11 13:30:00,
2013-10-11 06:35:00,49.8,36.5,29.97,North,0,0.0,0.0,60,0.00,,---,0.00,VWS V14.01,2013-10-11 13:35:00,
2013-10-11 06:40:00,49.6,35.9,29.97,North,0,0.0,0.0,59,0.00,,---,0.00,VWS V14.01,2013-10-11 13:40:00,
2013-10-11 06:45:00,49.8,36.5,29.97,North,0,0.0,0.0,60,0.00,,---,0.00,VWS V14.01,2013-10-11 13:45:00,
2013-10-11 06:51:00,49.8,36.1,29.97,North,0,0.0,0.0,59,0.00,,---,0.00,VWS V14.01,2013-10-11 13:51:00,
2013-10-11 06:56:00,49.8,36.5,29.97,North,0,1.1,1.1,60,0.00,,---,0.00,VWS V14.01,2013-10-11 13:56:00,
2013-10-11 07:01:00,50.2,36.4,29.97,North,0,0.0,0.0,59,0.00,,---,0.00,VWS V14.01,2013-10-11 14:01:00,
2013-10-11 07:06:00,50.7,36.9,29.97,NNW,338,0.0,0.0,59,0.00,,---,0.00,VWS V14.01,2013-10-11 14:06:00,
2013-10-11 07:11:00,51.3,37.4,29.97,NNE,22,0.0,0.0,59,0.00,,---,0.00,VWS V14.01,2013-10-11 14:11:00,
2013-10-11 07:16:00,51.6,37.8,29.97,South,180,0.0,0.0,59,0.00,,---,0.00,VWS V14.01,2013-10-11 14:16:00,
2013-10-11 07:21:00,52.0,38.1,29.97,SSE,158,0.0,0.0,59,0.00,,---,0.00,VWS V14.01,2013-10-11 14:21:00,
2013-10-11 07:26:00,52.9,38.5,29.97,SSE,158,0.0,0.0,58,0.00,,---,0.00,VWS V14.01,2013-10-11 14:26:00,
2013-10-11 07:31:00,53.6,38.3,29.97,SE,135,0.9,0.9,56,0.00,,---,0.00,VWS V14.01,2013-10-11 14:31:00,
2013-10-11 07:36:00,54.1,37.4,29.97,North,0,0.0,0.0,53,0.00,,---,0.00,VWS V14.01,2013-10-11 14:36:00,
2013-10-11 07:41:00,54.9,38.5,29.97,North,0,0.0,0.0,54,0.00,,---,0.00,VWS V14.01,2013-10-11 14:41:00,
2013-10-11 07:47:00,55.8,38.4,29.97,North,0,0.0,0.0,52,0.00,,---,0.00,VWS V14.01,2013-10-11 14:47:00,
2013-10-11 07:52:00,56.5,40.0,29.97,SE,135,0.0,0.0,54,0.00,,---,0.00,VWS V14.01,2013-10-11 14:52:00,
2013-10-11 07:57:00,57.2,40.2,29.97,SE,135,0.0,0.0,53,0.00,,---,0.00,VWS V14.01,2013-10-11 14:57:00,
2013-10-11 08:02:00,57.7,40.2,29.97,SE,135,0.0,0.0,52,0.00,,---,0.00,VWS V14.01,2013-10-11 15:02:00,
2013-10-11 08:07:00,58.5,40.9,29.97,SE,135,0.0,0.0,52,0.00,,---,0.00,VWS V14.01,2013-10-11 15:07:00,
2013-10-11 08:12:00,59.2,40.6,29.97,SE,135,0.0,0.0,50,0.00,,---,0.00,VWS V14.01,2013-10-11 15:12:00,
2013-10-11 08:17:00,59.9,41.2,29.97,SE,135,2.7,2.7,50,0.00,,---,0.00,VWS V14.01,2013-10-11 15:17:00,
2013-10-11 08:22:00,60.6,40.8,29.97,SE,135,2.7,2.7,48,0.00,,---,0.00,VWS V14.01,2013-10-11 15:22:00,
2013-10-11 08:27:00,61.0,41.2,29.97,SE,135,2.7,2.7,48,0.00,,---,0.00,VWS V14.01,2013-10-11 15:27:00,
2013-10-11 08:32:00,61.7,41.8,29.97,SE,135,2.7,2.7,48,0.00,,---,0.00,VWS V14.01,2013-10-11 15:32:00,
2013-10-11 08:37:00,62.1,41.6,29.97,SE,135,2.7,2.7,47,0.00,,---,0.00,VWS V14.01,2013-10-11 15:37:00,
2013-10-11 08:42:00,62.2,40.1,29.97,SE,135,2.7,2.7,44,0.00,,---,0.00,VWS V14.01,2013-10-11 15:42:00,
2013-10-11 08:48:00,62.8,41.2,29.97,SE,135,2.7,2.7,45,0.00,,---,0.00,VWS V14.01,2013-10-11 15:48:00,
2013-10-11 08:53:00,63.3,41.6,29.97,SE,135,2.7,2.7,45,0.00,,---,0.00,VWS V14.01,2013-10-11 15:53:00,
2013-10-11 08:58:00,63.9,42.1,29.97,SE,135,2.7,2.7,45,0.00,,---,0.00,VWS V14.01,2013-10-11 15:58:00,
2013-10-11 09:03:00,64.4,42.0,29.97,SW,225,0.0,0.0,44,0.00,,---,0.00,VWS V14.01,2013-10-11 16:03:00,
2013-10-11 09:08:00,64.6,41.6,29.97,SW,225,0.9,0.9,43,0.00,,---,0.00,VWS V14.01,2013-10-11 16:08:00,
2013-10-11 09:13:00,64.0,37.9,29.97,SW,225,0.9,0.9,38,0.00,,---,0.00,VWS V14.01,2013-10-11 16:13:00,
2013-10-11 09:18:00,64.6,40.4,29.97,SW,225,0.9,0.9,41,0.00,,---,0.00,VWS V14.01,2013-10-11 16:18:00,
2013-10-11 09:23:00,65.3,41.6,29.97,SW,225,1.1,1.6,42,0.00,,---,0.00,VWS V14.01,2013-10-11 16:23:00,
2013-10-11 09:28:00,65.8,40.9,29.97,WSW,248,2.5,2.5,40,0.00,,---,0.00,VWS V14.01,2013-10-11 16:28:00,
2013-10-11 09:33:00,66.2,39.2,29.97,NW,315,1.6,1.6,37,0.00,,---,0.00,VWS V14.01,2013-10-11 16:33:00,
2013-10-11 09:38:00,66.0,39.7,29.97,WSW,248,3.8,3.8,38,0.00,,---,0.00,VWS V14.01,2013-10-11 16:38:00,
2013-10-11 09:43:00,66.6,40.9,29.97,WSW,248,2.7,2.7,39,0.00,,---,0.00,VWS V14.01,2013-10-11 16:43:00,
2013-10-11 09:48:00,66.9,41.2,29.97,NNE,22,1.3,1.3,39,0.00,,---,0.00,VWS V14.01,2013-10-11 16:48:00,
2013-10-11 09:53:00,67.3,40.8,29.97,WSW,248,0.0,0.0,38,0.00,,---,0.00,VWS V14.01,2013-10-11 16:53:00,
2013-10-11 09:58:00,67.5,39.6,29.97,West,270,2.0,2.0,36,0.00,,---,0.00,VWS V14.01,2013-10-11 16:58:00,
2013-10-11 10:03:00,67.8,40.6,29.97,WSW,248,2.5,2.5,37,0.00,,---,0.00,VWS V14.01,2013-10-11 17:03:00,
2013-10-11 10:08:00,68.5,41.3,29.97,WSW,248,4.3,4.3,37,0.00,,---,0.00,VWS V14.01,2013-10-11 17:08:00,
2013-10-11 10:13:00,68.5,39.1,29.97,WNW,292,0.0,2.2,34,0.00,,---,0.00,VWS V14.01,2013-10-11 17:13:00,
2013-10-11 10:18:00,68.9,40.9,29.97,NW,315,0.9,0.9,36,0.00,,---,0.00,VWS V14.01,2013-10-11 17:18:00,
2013-10-11 10:23:00,69.6,41.5,29.97,SSE,158,1.3,1.3,36,0.00,,---,0.00,VWS V14.01,2013-10-11 17:23:00,
2013-10-11 10:28:00,70.0,41.1,29.97,WSW,248,2.5,2.9,35,0.00,,---,0.00,VWS V14.01,2013-10-11 17:28:00,
2013-10-11 10:34:00,70.3,41.4,29.97,WSW,248,4.3,4.3,35,0.00,,---,0.00,VWS V14.01,2013-10-11 17:34:00,
2013-10-11 10:39:00,70.7,41.7,29.97,WSW,248,4.3,4.3,35,0.00,,---,0.00,VWS V14.01,2013-10-11 17:39:00,
2013-10-11 10:44:00,70.9,41.9,29.97,WSW,248,4.3,4.3,35,0.00,,---,0.00,VWS V14.01,2013-10-11 17:44:00,
2013-10-11 10:49:00,71.2,42.2,29.97,SSE,158,4.3,4.3,35,0.00,,---,0.00,VWS V14.01,2013-10-11 17:49:00,
2013-10-11 10:54:00,71.6,41.8,29.97,SSE,158,4.3,4.3,34,0.00,,---,0.00,VWS V14.01,2013-10-11 17:54:00,
2013-10-11 10:59:00,72.0,42.1,29.97,SSE,158,4.3,4.3,34,0.00,,---,0.00,VWS V14.01,2013-10-11 17:59:00,
2013-10-11 11:04:00,72.3,41.6,29.97,WSW,248,3.6,3.6,33,0.00,,---,0.00,VWS V14.01,2013-10-11 18:04:00,
2013-10-11 11:09:00,72.1,41.5,29.97,South,180,1.6,1.6,33,0.00,,---,0.00,VWS V14.01,2013-10-11 18:09:00,
2013-10-11 11:14:00,72.3,41.6,29.94,South,180,1.6,1.6,33,0.00,,---,0.00,VWS V14.01,2013-10-11 18:14:00,
2013-10-11 11:19:00,72.9,41.3,29.94,WSW,248,2.5,2.5,32,0.00,,---,0.00,VWS V14.01,2013-10-11 18:19:00,
2013-10-11 11:24:00,73.0,42.3,29.94,WSW,248,4.7,4.7,33,0.00,,---,0.00,VWS V14.01,2013-10-11 18:24:00,
2013-10-11 11:29:00,73.4,42.6,29.94,WSW,248,4.7,4.7,33,0.00,,---,0.00,VWS V14.01,2013-10-11 18:29:00,
2013-10-11 11:34:00,73.8,42.1,29.94,SSW,202,2.0,2.0,32,0.00,,---,0.00,VWS V14.01,2013-10-11 18:34:00,
2013-10-11 11:39:00,73.4,41.8,29.94,SSW,202,2.0,2.0,32,0.00,,---,0.00,VWS V14.01,2013-10-11 18:39:00,
2013-10-11 11:44:00,73.4,41.8,29.94,SSW,202,2.0,2.0,32,0.00,,---,0.00,VWS V14.01,2013-10-11 18:44:00,
2013-10-11 11:49:00,73.4,41.8,29.94,SSW,202,2.0,2.0,32,0.00,,---,0.00,VWS V14.01,2013-10-11 18:49:00,
2013-10-11 11:54:00,73.6,41.9,29.94,WSW,248,4.7,4.7,32,0.00,,---,0.00,VWS V14.01,2013-10-11 18:54:00,
2013-10-11 11:59:00,73.9,42.2,29.94,WSW,248,4.7,4.7,32,0.00,,---,0.00,VWS V14.01,2013-10-11 18:59:00,
2013-10-11 12:04:00,74.3,42.6,29.94,WSW,248,4.7,4.7,32,0.00,,---,0.00,VWS V14.01,2013-10-11 19:04:00,
2013-10-11 12:09:00,74.7,42.9,29.94,WSW,248,4.7,4.7,32,0.00,,---,0.00,VWS V14.01,2013-10-11 19:09:00,
2013-10-11 12:14:00,74.8,43.0,29.91,WSW,248,4.7,4.7,32,0.00,,---,0.00,VWS V14.01,2013-10-11 19:14:00,
2013-10-11 12:19:00,75.0,42.4,29.91,WSW,248,4.7,4.7,31,0.00,,---,0.00,VWS V14.01,2013-10-11 19:19:00,
2013-10-11 12:25:00,74.5,41.9,29.91,WSW,248,4.7,4.7,31,0.00,,---,0.00,VWS V14.01,2013-10-11 19:25:00,
2013-10-11 12:30:00,74.5,41.9,29.91,WSW,248,4.7,4.7,31,0.00,,---,0.00,VWS V14.01,2013-10-11 19:30:00,
2013-10-11 12:35:00,74.7,42.0,29.91,WSW,248,4.7,4.7,31,0.00,,---,0.00,VWS V14.01,2013-10-11 19:35:00,
2013-10-11 12:40:00,74.8,42.2,29.91,WSW,248,4.7,4.7,31,0.00,,---,0.00,VWS V14.01,2013-10-11 19:40:00,
2013-10-11 12:45:00,74.1,40.7,29.91,WSW,248,4.7,4.7,30,0.00,,---,0.00,VWS V14.01,2013-10-11 19:45:00,
2013-10-11 12:50:00,73.9,41.4,29.91,WSW,248,4.7,4.7,31,0.00,,---,0.00,VWS V14.01,2013-10-11 19:50:00,
2013-10-11 12:55:00,74.7,42.0,29.91,WSW,248,4.7,4.7,31,0.00,,---,0.00,VWS V14.01,2013-10-11 19:55:00,
2013-10-11 13:00:00,75.0,41.5,29.91,WSW,248,4.7,4.7,30,0.00,,---,0.00,VWS V14.01,2013-10-11 20:00:00,
2013-10-11 13:05:00,75.0,42.4,29.91,WSW,248,4.7,4.7,31,0.00,,---,0.00,VWS V14.01,2013-10-11 20:05:00,
2013-10-11 13:10:00,75.4,42.7,29.91,WSW,248,4.7,4.7,31,0.00,,---,0.00,VWS V14.01,2013-10-11 20:10:00,
2013-10-11 13:15:00,75.0,41.5,29.91,WSW,248,4.7,4.7,30,0.00,,---,0.00,VWS V14.01,2013-10-11 20:15:00,
2013-10-11 13:20:00,75.2,41.7,29.91,WSW,248,4.7,4.7,30,0.00,,---,0.00,VWS V14.01,2013-10-11 20:20:00,
2013-10-11 13:25:00,75.6,42.0,29.91,WSW,248,4.7,4.7,30,0.00,,---,0.00,VWS V14.01,2013-10-11 20:25:00,
2013-10-11 13:30:00,75.9,42.3,29.91,WSW,248,4.7,4.7,30,0.00,,---,0.00,VWS V14.01,2013-10-11 20:30:00,
2013-10-11 13:35:00,75.6,40.2,29.91,WSW,248,4.7,4.7,28,0.00,,---,0.00,VWS V14.01,2013-10-11 20:35:00,
2013-10-11 13:40:00,75.9,41.4,29.91,WSW,248,4.7,4.7,29,0.00,,---,0.00,VWS V14.01,2013-10-11 20:40:00,
2013-10-11 13:45:00,76.3,41.7,29.91,WSW,248,4.7,4.7,29,0.00,,---,0.00,VWS V14.01,2013-10-11 20:45:00,
2013-10-11 13:50:00,76.3,41.7,29.91,WSW,248,4.7,4.7,29,0.00,,---,0.00,VWS V14.01,2013-10-11 20:50:00,
2013-10-11 13:55:00,76.3,40.8,29.91,WSW,248,4.7,4.7,28,0.00,,---,0.00,VWS V14.01,2013-10-11 20:55:00,
2013-10-11 14:00:00,76.3,40.8,29.91,WSW,248,4.7,4.7,28,0.00,,---,0.00,VWS V14.01,2013-10-11 21:00:00,
2013-10-11 14:05:00,77.2,41.6,29.91,WSW,248,4.7,4.7,28,0.00,,---,0.00,VWS V14.01,2013-10-11 21:05:00,
2013-10-11 14:10:00,77.2,39.7,29.91,WSW,248,4.7,4.7,26,0.00,,---,0.00,VWS V14.01,2013-10-11 21:10:00,
2013-10-11 14:15:00,77.4,39.8,29.91,WSW,248,4.7,4.7,26,0.00,,---,0.00,VWS V14.01,2013-10-11 21:15:00,
2013-10-11 14:20:00,77.4,40.8,29.91,WSW,248,4.7,4.7,27,0.00,,---,0.00,VWS V14.01,2013-10-11 21:20:00,
2013-10-11 14:25:00,77.2,40.7,29.91,WSW,248,4.7,4.7,27,0.00,,---,0.00,VWS V14.01,2013-10-11 21:25:00,
2013-10-11 14:30:00,77.2,39.7,29.91,WSW,248,4.7,4.7,26,0.00,,---,0.00,VWS V14.01,2013-10-11 21:30:00,
2013-10-11 14:35:00,77.4,40.8,29.91,WSW,248,4.7,4.7,27,0.00,,---,0.00,VWS V14.01,2013-10-11 21:35:00,
2013-10-11 14:40:00,77.4,38.8,29.91,WSW,248,4.7,4.7,25,0.00,,---,0.00,VWS V14.01,2013-10-11 21:40:00,
2013-10-11 14:45:00,77.0,39.5,29.91,WSW,248,4.7,4.7,26,0.00,,---,0.00,VWS V14.01,2013-10-11 21:45:00,
2013-10-11 14:50:00,77.2,38.7,29.91,WSW,248,4.7,4.7,25,0.00,,---,0.00,VWS V14.01,2013-10-11 21:50:00,
2013-10-11 14:55:00,76.8,38.4,29.91,WSW,248,4.7,4.7,25,0.00,,---,0.00,VWS V14.01,2013-10-11 21:55:00,
2013-10-11 15:01:00,75.6,36.3,29.91,WSW,248,4.7,4.7,24,0.00,,---,0.00,VWS V14.01,2013-10-11 22:01:00,
2013-10-11 15:06:00,76.1,37.8,29.91,WSW,248,4.7,4.7,25,0.00,,---,0.00,VWS V14.01,2013-10-11 22:06:00,
2013-10-11 15:11:00,75.6,36.3,29.91,WSW,248,4.7,4.7,24,0.00,,---,0.00,VWS V14.01,2013-10-11 22:11:00,
2013-10-11 15:16:00,76.3,37.9,29.91,WSW,248,4.7,4.7,25,0.00,,---,0.00,VWS V14.01,2013-10-11 22:16:00,
2013-10-11 15:21:00,76.3,37.9,29.91,WSW,248,4.7,4.7,25,0.00,,---,0.00,VWS V14.01,2013-10-11 22:21:00,
2013-10-11 15:26:00,77.0,38.5,29.91,WSW,248,4.7,4.7,25,0.00,,---,0.00,VWS V14.01,2013-10-11 22:26:00,
2013-10-11 15:31:00,77.2,37.6,29.91,WSW,248,4.7,4.7,24,0.00,,---,0.00,VWS V14.01,2013-10-11 22:31:00,
2013-10-11 15:36:00,77.5,39.0,29.91,WSW,248,4.7,4.7,25,0.00,,---,0.00,VWS V14.01,2013-10-11 22:36:00,
2013-10-11 15:41:00,77.4,37.8,29.91,WSW,248,4.7,4.7,24,0.00,,---,0.00,VWS V14.01,2013-10-11 22:41:00,
2013-10-11 15:46:00,77.5,37.9,29.91,WSW,248,4.7,4.7,24,0.00,,---,0.00,VWS V14.01,2013-10-11 22:46:00,
2013-10-11 15:51:00,77.0,37.5,29.91,WSW,248,4.7,4.7,24,0.00,,---,0.00,VWS V14.01,2013-10-11 22:51:00,
2013-10-11 15:56:00,77.0,37.5,29.91,WSW,248,4.7,4.7,24,0.00,,---,0.00,VWS V14.01,2013-10-11 22:56:00,
2013-10-11 16:01:00,77.4,37.8,29.91,WSW,248,4.7,4.7,24,0.00,,---,0.00,VWS V14.01,2013-10-11 23:01:00,
2013-10-11 16:06:00,77.4,37.8,29.91,WSW,248,4.7,4.7,24,0.00,,---,0.00,VWS V14.01,2013-10-11 23:06:00,
2013-10-11 16:11:00,77.5,37.9,29.91,WSW,248,4.7,4.7,24,0.00,,---,0.00,VWS V14.01,2013-10-11 23:11:00,
2013-10-11 16:16:00,77.5,37.9,29.91,WSW,248,4.7,4.7,24,0.00,,---,0.00,VWS V14.01,2013-10-11 23:16:00,
2013-10-11 16:22:00,77.0,37.5,29.91,WSW,248,4.7,4.7,24,0.00,,---,0.00,VWS V14.01,2013-10-11 23:22:00,
2013-10-11 16:27:00,77.2,37.6,29.91,WSW,248,4.7,4.7,24,0.00,,---,0.00,VWS V14.01,2013-10-11 23:27:00,
2013-10-11 16:32:00,77.0,37.5,29.91,WSW,248,4.7,4.7,24,0.00,,---,0.00,VWS V14.01,2013-10-11 23:32:00,
2013-10-11 16:37:00,76.8,37.3,29.91,WSW,248,4.7,4.7,24,0.00,,---,0.00,VWS V14.01,2013-10-11 23:37:00,
2013-10-11 16:42:00,76.5,37.0,29.91,WSW,248,4.7,4.7,24,0.00,,---,0.00,VWS V14.01,2013-10-11 23:42:00,
2013-10-11 16:47:00,75.7,36.4,29.91,WSW,248,4.7,4.7,24,0.00,,---,0.00,VWS V14.01,2013-10-11 23:47:00,
2013-10-11 16:52:00,75.4,36.1,29.91,WSW,248,4.7,4.7,24,0.00,,---,0.00,VWS V14.01,2013-10-11 23:52:00,
2013-10-11 16:57:00,74.8,35.7,29.88,WSW,248,4.7,4.7,24,0.00,,---,0.00,VWS V14.01,2013-10-11 23:57:00,
2013-10-11 17:03:00,74.3,35.2,29.88,WSW,248,4.7,4.7,24,0.00,,---,0.00,VWS V14.01,2013-10-12 00:03:00,
2013-10-11 17:08:00,73.8,34.8,29.88,WSW,248,4.7,4.7,24,0.00,,---,0.00,VWS V14.01,2013-10-12 00:08:00,
2013-10-11 17:13:00,73.4,34.5,29.88,WSW,248,4.7,4.7,24,0.00,,---,0.00,VWS V14.01,2013-10-12 00:13:00,
2013-10-11 17:18:00,72.7,33.8,29.88,WSW,248,4.7,4.7,24,0.00,,---,0.00,VWS V14.01,2013-10-12 00:18:00,
2013-10-11 17:23:00,72.3,34.6,29.88,WSW,248,4.7,4.7,25,0.00,,---,0.00,VWS V14.01,2013-10-12 00:23:00,
2013-10-11 17:28:00,71.6,34.0,29.88,WSW,248,4.7,4.7,25,0.00,,---,0.00,VWS V14.01,2013-10-12 00:28:00,
2013-10-11 17:33:00,71.2,33.6,29.88,WSW,248,4.7,4.7,25,0.00,,---,0.00,VWS V14.01,2013-10-12 00:33:00,
2013-10-11 17:38:00,70.7,33.2,29.88,WSW,248,4.7,4.7,25,0.00,,---,0.00,VWS V14.01,2013-10-12 00:38:00,
2013-10-11 17:43:00,70.3,32.9,29.91,WSW,248,4.7,4.7,25,0.00,,---,0.00,VWS V14.01,2013-10-12 00:43:00,
2013-10-11 17:48:00,70.0,32.6,29.91,WSW,248,4.7,4.7,25,0.00,,---,0.00,VWS V14.01,2013-10-12 00:48:00,
2013-10-11 17:53:00,69.6,33.2,29.91,WSW,248,4.7,4.7,26,0.00,,---,0.00,VWS V14.01,2013-10-12 00:53:00,
2013-10-11 17:59:00,69.3,32.9,29.88,WSW,248,4.7,4.7,26,0.00,,---,0.00,VWS V14.01,2013-10-12 00:59:00,
2013-10-11 18:04:00,68.7,32.5,29.88,WSW,248,4.7,4.7,26,0.00,,---,0.00,VWS V14.01,2013-10-12 01:04:00,
2013-10-11 18:09:00,68.4,32.2,29.88,WSW,248,4.7,4.7,26,0.00,,---,0.00,VWS V14.01,2013-10-12 01:09:00,
2013-10-11 18:14:00,68.0,31.9,29.91,WSW,248,4.7,4.7,26,0.00,,---,0.00,VWS V14.01,2013-10-12 01:14:00,
2013-10-11 18:19:00,67.6,32.5,29.91,WSW,248,4.7,4.7,27,0.00,,---,0.00,VWS V14.01,2013-10-12 01:19:00,
2013-10-11 18:24:00,67.3,32.2,29.91,WSW,248,4.7,4.7,27,0.00,,---,0.00,VWS V14.01,2013-10-12 01:24:00,
2013-10-11 18:29:00,66.9,31.9,29.91,WSW,248,4.7,4.7,27,0.00,,---,0.00,VWS V14.01,2013-10-12 01:29:00,
2013-10-11 18:34:00,66.7,31.7,29.91,WSW,248,4.7,4.7,27,0.00,,---,0.00,VWS V14.01,2013-10-12 01:34:00,
2013-10-11 18:39:00,66.4,31.4,29.91,WSW,248,4.7,4.7,27,0.00,,---,0.00,VWS V14.01,2013-10-12 01:39:00,
2013-10-11 18:44:00,66.0,31.1,29.91,WSW,248,4.7,4.7,27,0.00,,---,0.00,VWS V14.01,2013-10-12 01:44:00,
2013-10-11 18:49:00,65.8,31.0,29.91,WSW,248,4.7,4.7,27,0.00,,---,0.00,VWS V14.01,2013-10-12 01:49:00,
2013-10-11 18:54:00,65.7,30.8,29.91,WSW,248,4.7,4.7,27,0.00,,---,0.00,VWS V14.01,2013-10-12 01:54:00,
2013-10-11 19:00:00,65.1,31.2,29.91,WSW,248,4.7,4.7,28,0.00,,---,0.00,VWS V14.01,2013-10-12 02:00:00,
2013-10-11 19:05:00,65.1,31.2,29.91,WSW,248,4.7,4.7,28,0.00,,---,0.00,VWS V14.01,2013-10-12 02:05:00,
2013-10-11 19:10:00,64.8,30.9,29.91,WSW,248,4.7,4.7,28,0.00,,---,0.00,VWS V14.01,2013-10-12 02:10:00,
2013-10-11 19:15:00,64.8,30.9,29.91,WSW,248,4.7,4.7,28,0.00,,---,0.00,VWS V14.01,2013-10-12 02:15:00,
2013-10-11 19:20:00,64.9,31.1,29.91,WSW,248,4.7,4.7,28,0.00,,---,0.00,VWS V14.01,2013-10-12 02:20:00,
2013-10-11 19:25:00,64.6,30.8,29.91,WSW,248,4.7,4.7,28,0.00,,---,0.00,VWS V14.01,2013-10-12 02:25:00,
2013-10-11 19:30:00,64.6,31.6,29.91,WSW,248,4.7,4.7,29,0.00,,---,0.00,VWS V14.01,2013-10-12 02:30:00,
2013-10-11 19:35:00,64.6,31.6,29.91,WSW,248,4.7,4.7,29,0.00,,---,0.00,VWS V14.01,2013-10-12 02:35:00,
2013-10-11 19:41:00,64.8,31.8,29.91,NNW,338,2.2,2.2,29,0.00,,---,0.00,VWS V14.01,2013-10-12 02:41:00,
2013-10-11 19:46:00,64.8,31.8,29.91,ENE,68,1.1,1.1,29,0.00,,---,0.00,VWS V14.01,2013-10-12 02:46:00,
2013-10-11 19:51:00,64.6,31.6,29.91,North,0,2.5,2.5,29,0.00,,---,0.00,VWS V14.01,2013-10-12 02:51:00,
2013-10-11 19:56:00,64.4,31.5,29.91,North,0,2.5,2.5,29,0.00,,---,0.00,VWS V14.01,2013-10-12 02:56:00,
2013-10-11 20:01:00,64.4,31.5,29.91,North,0,0.0,0.0,29,0.00,,---,0.00,VWS V14.01,2013-10-12 03:01:00,
2013-10-11 20:06:00,64.0,32.0,29.91,ENE,68,2.7,2.7,30,0.00,,---,0.00,VWS V14.01,2013-10-12 03:06:00,
2013-10-11 20:11:00,63.7,31.7,29.91,ENE,68,2.0,2.0,30,0.00,,---,0.00,VWS V14.01,2013-10-12 03:11:00,
2013-10-11 20:16:00,63.7,32.5,29.91,ENE,68,2.0,2.0,31,0.00,,---,0.00,VWS V14.01,2013-10-12 03:16:00,
2013-10-11 20:21:00,63.5,32.3,29.91,ENE,68,2.0,2.0,31,0.00,,---,0.00,VWS V14.01,2013-10-12 03:21:00,
2013-10-11 20:26:00,63.5,32.3,29.91,ENE,68,2.0,2.0,31,0.00,,---,0.00,VWS V14.01,2013-10-12 03:26:00,
2013-10-11 20:31:00,63.5,32.3,29.91,ENE,68,2.0,2.0,31,0.00,,---,0.00,VWS V14.01,2013-10-12 03:31:00,
2013-10-11 20:36:00,63.1,32.0,29.91,ENE,68,2.0,2.0,31,0.00,,---,0.00,VWS V14.01,2013-10-12 03:36:00,
2013-10-11 20:42:00,63.1,32.0,29.91,ENE,68,2.0,2.0,31,0.00,,---,0.00,VWS V14.01,2013-10-12 03:42:00,
2013-10-11 20:47:00,62.6,31.6,29.91,ENE,68,2.0,2.0,31,0.00,,---,0.00,VWS V14.01,2013-10-12 03:47:00,
2013-10-11 20:52:00,62.4,32.2,29.91,ENE,68,2.0,2.0,32,0.00,,---,0.00,VWS V14.01,2013-10-12 03:52:00,
2013-10-11 20:57:00,62.2,32.0,29.91,ENE,68,2.0,2.0,32,0.00,,---,0.00,VWS V14.01,2013-10-12 03:57:00,
2013-10-11 21:01:00,62.1,31.9,29.91,ENE,68,2.0,2.0,32,0.00,,---,0.00,VWS V14.01,2013-10-12 04:01:00,
2013-10-11 21:02:00,61.9,31.7,29.91,ENE,68,2.0,2.0,32,0.00,,---,0.00,VWS V14.01,2013-10-12 04:02:00,
2013-10-11 21:03:00,61.9,31.7,29.91,ENE,68,2.0,2.0,32,0.00,,---,0.00,VWS V14.01,2013-10-12 04:03:00,
2013-10-11 21:08:00,61.9,31.7,29.91,ENE,68,2.0,2.0,32,0.00,,---,0.00,VWS V14.01,2013-10-12 04:08:00,
2013-10-11 21:13:00,61.7,32.3,29.91,ENE,68,2.0,2.0,33,0.00,,---,0.00,VWS V14.01,2013-10-12 04:13:00,
2013-10-11 21:18:00,61.5,32.2,29.91,ENE,68,2.0,2.0,33,0.00,,---,0.00,VWS V14.01,2013-10-12 04:18:00,
2013-10-11 21:23:00,61.3,32.0,29.91,ENE,68,2.0,2.0,33,0.00,,---,0.00,VWS V14.01,2013-10-12 04:23:00,
2013-10-11 21:28:00,61.3,32.8,29.91,ENE,68,2.0,2.0,34,0.00,,---,0.00,VWS V14.01,2013-10-12 04:28:00,
2013-10-11 21:33:00,61.2,32.6,29.91,ENE,68,2.0,2.0,34,0.00,,---,0.00,VWS V14.01,2013-10-12 04:33:00,
2013-10-11 21:38:00,61.0,32.4,29.91,ENE,68,2.0,2.0,34,0.00,,---,0.00,VWS V14.01,2013-10-12 04:38:00,
2013-10-11 21:43:00,60.8,32.3,29.91,ENE,68,2.0,2.0,34,0.00,,---,0.00,VWS V14.01,2013-10-12 04:43:00,
2013-10-11 21:48:00,60.6,32.1,29.91,ENE,68,2.0,2.0,34,0.00,,---,0.00,VWS V14.01,2013-10-12 04:48:00,
2013-10-11 21:53:00,60.4,32.0,29.91,ENE,68,2.0,2.0,34,0.00,,---,0.00,VWS V14.01,2013-10-12 04:53:00,
2013-10-11 21:59:00,60.3,31.8,29.91,ENE,68,2.0,2.0,34,0.00,,---,0.00,VWS V14.01,2013-10-12 04:59:00,
2013-10-11 22:04:00,60.1,31.6,29.91,ENE,68,2.0,2.0,34,0.00,,---,0.00,VWS V14.01,2013-10-12 05:04:00,
2013-10-11 22:09:00,59.7,31.3,29.91,ENE,68,2.0,2.0,34,0.00,,---,0.00,VWS V14.01,2013-10-12 05:09:00,
2013-10-11 22:14:00,59.4,31.0,29.91,ENE,68,2.0,2.0,34,0.00,,---,0.00,VWS V14.01,2013-10-12 05:14:00,
2013-10-11 22:19:00,59.2,31.6,29.91,ENE,68,2.0,2.0,35,0.00,,---,0.00,VWS V14.01,2013-10-12 05:19:00,
2013-10-11 22:24:00,59.0,31.4,29.91,ENE,68,2.0,2.0,35,0.00,,---,0.00,VWS V14.01,2013-10-12 05:24:00,
2013-10-11 22:29:00,58.8,31.2,29.91,ENE,68,2.0,2.0,35,0.00,,---,0.00,VWS V14.01,2013-10-12 05:29:00,
2013-10-11 22:34:00,58.8,31.2,29.91,ENE,68,2.0,2.0,35,0.00,,---,0.00,VWS V14.01,2013-10-12 05:34:00,
2013-10-11 22:39:00,58.8,31.2,29.91,ENE,68,2.0,2.0,35,0.00,,---,0.00,VWS V14.01,2013-10-12 05:39:00,
2013-10-11 22:44:00,58.6,31.1,29.94,ENE,68,2.0,2.0,35,0.00,,---,0.00,VWS V14.01,2013-10-12 05:44:00,
2013-10-11 22:49:00,58.6,31.1,29.94,ENE,68,2.0,2.0,35,0.00,,---,0.00,VWS V14.01,2013-10-12 05:49:00,
2013-10-11 22:54:00,58.6,31.1,29.94,ENE,68,2.0,2.0,35,0.00,,---,0.00,VWS V14.01,2013-10-12 05:54:00,
2013-10-11 22:59:00,58.5,30.9,29.91,ENE,68,2.0,2.0,35,0.00,,---,0.00,VWS V14.01,2013-10-12 05:59:00,
2013-10-11 23:04:00,58.5,30.9,29.91,ENE,68,2.0,2.0,35,0.00,,---,0.00,VWS V14.01,2013-10-12 06:04:00,
2013-10-11 23:09:00,58.3,30.8,29.91,ENE,68,2.0,2.0,35,0.00,,---,0.00,VWS V14.01,2013-10-12 06:09:00,
2013-10-11 23:15:00,58.3,30.8,29.91,North,0,1.3,1.3,35,0.00,,---,0.00,VWS V14.01,2013-10-12 06:15:00,
2013-10-11 23:20:00,58.1,30.6,29.91,North,0,1.3,1.3,35,0.00,,---,0.00,VWS V14.01,2013-10-12 06:20:00,
2013-10-11 23:25:00,57.9,30.5,29.91,North,0,1.3,1.3,35,0.00,,---,0.00,VWS V14.01,2013-10-12 06:25:00,
2013-10-11 23:30:00,57.9,30.5,29.91,ENE,68,1.1,1.1,35,0.00,,---,0.00,VWS V14.01,2013-10-12 06:30:00,
2013-10-11 23:35:00,57.7,30.3,29.91,ENE,68,1.6,1.6,35,0.00,,---,0.00,VWS V14.01,2013-10-12 06:35:00,
2013-10-11 23:40:00,57.7,30.3,29.91,ENE,68,1.6,1.6,35,0.00,,---,0.00,VWS V14.01,2013-10-12 06:40:00,
2013-10-11 23:45:00,57.6,30.1,29.91,West,270,2.7,2.7,35,0.00,,---,0.00,VWS V14.01,2013-10-12 06:45:00,
2013-10-11 23:50:00,57.7,30.3,29.91,ESE,112,1.1,1.1,35,0.00,,---,0.00,VWS V14.01,2013-10-12 06:50:00,
2013-10-11 23:55:00,57.9,30.5,29.91,ESE,112,1.1,1.1,35,0.00,,---,0.00,VWS V14.01,2013-10-12 06:55:00,